sensor_id;sensor_type;location;lat;lon;timestamp;P1;durP1;ratioP1;P2;durP2;ratioP2
291;SDS011;23311;48.776;9.162;2022-12-18T00:00:04;65.20;;;42.73;;
291;SDS011;23311;48.776;9.162;2022-12-18T00:02:33;54.33;;;42.03;;
291;SDS011;23311;48.776;9.162;2022-12-18T00:05:02;60.63;;;42.93;;
291;SDS011;23311;48.776;9.162;2022-12-18T00:07:30;62.03;;;40.80;;
291;SDS011;23311;48.776;9.162;2022-12-18T00:09:58;55.97;;;40.03;;
291;SDS011;23311;48.776;9.162;2022-12-18T00:12:26;65.57;;;41.80;;
291;SDS011;23311;48.776;9.162;2022-12-18T00:14:55;65.90;;;43.57;;
291;SDS011;23311;48.776;9.162;2022-12-18T00:17:25;68.70;;;43.13;;
291;SDS011;23311;48.776;9.162;2022-12-18T00:19:53;62.03;;;41.50;;
291;SDS011;23311;48.776;9.162;2022-12-18T00:22:21;67.17;;;44.67;;
291;SDS011;23311;48.776;9.162;2022-12-18T00:24:49;63.70;;;43.83;;
291;SDS011;23311;48.776;9.162;2022-12-18T00:27:17;60.93;;;41.40;;
291;SDS011;23311;48.776;9.162;2022-12-18T00:29:45;65.70;;;42.87;;
291;SDS011;23311;48.776;9.162;2022-12-18T00:32:13;63.47;;;42.13;;
291;SDS011;23311;48.776;9.162;2022-12-18T00:34:42;69.47;;;44.30;;
291;SDS011;23311;48.776;9.162;2022-12-18T00:37:11;63.30;;;44.70;;
291;SDS011;23311;48.776;9.162;2022-12-18T00:39:45;67.20;;;41.93;;
291;SDS011;23311;48.776;9.162;2022-12-18T00:42:15;73.00;;;46.13;;
291;SDS011;23311;48.776;9.162;2022-12-18T00:45:01;71.63;;;45.47;;
291;SDS011;23311;48.776;9.162;2022-12-18T00:47:37;74.57;;;47.50;;
291;SDS011;23311;48.776;9.162;2022-12-18T00:50:07;64.80;;;42.40;;
291;SDS011;23311;48.776;9.162;2022-12-18T00:52:39;68.47;;;45.23;;
291;SDS011;23311;48.776;9.162;2022-12-18T00:55:08;70.83;;;45.07;;
291;SDS011;23311;48.776;9.162;2022-12-18T00:57:36;64.50;;;43.30;;
291;SDS011;23311;48.776;9.162;2022-12-18T01:00:06;66.30;;;43.63;;
291;SDS011;23311;48.776;9.162;2022-12-18T01:02:36;70.40;;;43.53;;
291;SDS011;23311;48.776;9.162;2022-12-18T01:05:04;70.80;;;46.13;;
291;SDS011;23311;48.776;9.162;2022-12-18T01:07:35;65.50;;;42.40;;
291;SDS011;23311;48.776;9.162;2022-12-18T01:10:03;59.27;;;43.77;;
291;SDS011;23311;48.776;9.162;2022-12-18T01:12:33;66.73;;;44.07;;
291;SDS011;23311;48.776;9.162;2022-12-18T01:15:01;61.23;;;44.27;;
291;SDS011;23311;48.776;9.162;2022-12-18T01:17:30;70.13;;;44.43;;
291;SDS011;23311;48.776;9.162;2022-12-18T01:19:58;61.13;;;42.93;;
291;SDS011;23311;48.776;9.162;2022-12-18T01:22:27;59.00;;;40.43;;
291;SDS011;23311;48.776;9.162;2022-12-18T01:24:56;61.80;;;39.60;;
291;SDS011;23311;48.776;9.162;2022-12-18T01:27:24;70.07;;;39.53;;
291;SDS011;23311;48.776;9.162;2022-12-18T01:29:52;54.60;;;36.77;;
291;SDS011;23311;48.776;9.162;2022-12-18T01:32:20;56.10;;;38.00;;
291;SDS011;23311;48.776;9.162;2022-12-18T01:34:48;53.13;;;37.47;;
291;SDS011;23311;48.776;9.162;2022-12-18T01:37:16;53.67;;;36.63;;
291;SDS011;23311;48.776;9.162;2022-12-18T01:39:46;57.87;;;40.10;;
291;SDS011;23311;48.776;9.162;2022-12-18T01:42:14;58.30;;;40.00;;
291;SDS011;23311;48.776;9.162;2022-12-18T01:44:54;57.70;;;39.40;;
291;SDS011;23311;48.776;9.162;2022-12-18T01:47:25;56.00;;;38.40;;
291;SDS011;23311;48.776;9.162;2022-12-18T01:49:56;60.13;;;40.03;;
291;SDS011;23311;48.776;9.162;2022-12-18T01:52:28;61.90;;;41.37;;
291;SDS011;23311;48.776;9.162;2022-12-18T01:54:59;56.40;;;39.47;;
291;SDS011;23311;48.776;9.162;2022-12-18T01:57:29;59.43;;;40.87;;
291;SDS011;23311;48.776;9.162;2022-12-18T01:59:59;59.37;;;41.77;;
291;SDS011;23311;48.776;9.162;2022-12-18T02:02:30;59.07;;;39.60;;
291;SDS011;23311;48.776;9.162;2022-12-18T02:04:59;54.80;;;37.73;;
291;SDS011;23311;48.776;9.162;2022-12-18T02:07:30;56.17;;;39.07;;
291;SDS011;23311;48.776;9.162;2022-12-18T02:10:07;61.77;;;40.80;;
291;SDS011;23311;48.776;9.162;2022-12-18T02:12:42;54.00;;;39.13;;
291;SDS011;23311;48.776;9.162;2022-12-18T02:15:19;61.53;;;41.23;;
291;SDS011;23311;48.776;9.162;2022-12-18T02:17:54;57.00;;;40.70;;
291;SDS011;23311;48.776;9.162;2022-12-18T02:20:28;54.03;;;37.87;;
291;SDS011;23311;48.776;9.162;2022-12-18T02:23:09;60.23;;;39.87;;
291;SDS011;23311;48.776;9.162;2022-12-18T02:25:54;55.17;;;36.97;;
291;SDS011;23311;48.776;9.162;2022-12-18T02:28:34;53.13;;;35.27;;
291;SDS011;23311;48.776;9.162;2022-12-18T02:31:07;54.30;;;35.90;;
291;SDS011;23311;48.776;9.162;2022-12-18T02:33:39;48.27;;;34.80;;
291;SDS011;23311;48.776;9.162;2022-12-18T02:36:09;50.57;;;32.53;;
291;SDS011;23311;48.776;9.162;2022-12-18T02:38:39;50.30;;;35.53;;
291;SDS011;23311;48.776;9.162;2022-12-18T02:41:10;48.57;;;32.90;;
291;SDS011;23311;48.776;9.162;2022-12-18T02:43:39;44.53;;;32.50;;
291;SDS011;23311;48.776;9.162;2022-12-18T02:46:23;45.00;;;31.83;;
291;SDS011;23311;48.776;9.162;2022-12-18T02:49:01;50.17;;;33.23;;
291;SDS011;23311;48.776;9.162;2022-12-18T02:51:36;44.70;;;31.97;;
291;SDS011;23311;48.776;9.162;2022-12-18T02:54:15;44.70;;;31.20;;
291;SDS011;23311;48.776;9.162;2022-12-18T02:56:53;52.07;;;32.70;;
291;SDS011;23311;48.776;9.162;2022-12-18T02:59:24;42.47;;;30.93;;
291;SDS011;23311;48.776;9.162;2022-12-18T03:02:02;49.53;;;32.97;;
291;SDS011;23311;48.776;9.162;2022-12-18T03:04:38;45.80;;;32.23;;
291;SDS011;23311;48.776;9.162;2022-12-18T03:07:09;46.17;;;32.80;;
291;SDS011;23311;48.776;9.162;2022-12-18T03:09:43;48.07;;;32.30;;
291;SDS011;23311;48.776;9.162;2022-12-18T03:12:18;42.77;;;30.93;;
291;SDS011;23311;48.776;9.162;2022-12-18T03:14:53;47.53;;;30.60;;
291;SDS011;23311;48.776;9.162;2022-12-18T03:17:26;41.63;;;29.23;;
291;SDS011;23311;48.776;9.162;2022-12-18T03:19:58;43.80;;;30.40;;
291;SDS011;23311;48.776;9.162;2022-12-18T03:22:30;43.60;;;30.47;;
291;SDS011;23311;48.776;9.162;2022-12-18T03:25:02;47.30;;;31.03;;
291;SDS011;23311;48.776;9.162;2022-12-18T03:27:34;49.47;;;31.47;;
291;SDS011;23311;48.776;9.162;2022-12-18T03:30:05;45.93;;;31.53;;
291;SDS011;23311;48.776;9.162;2022-12-18T03:32:38;42.27;;;28.67;;
291;SDS011;23311;48.776;9.162;2022-12-18T03:35:10;37.97;;;28.90;;
291;SDS011;23311;48.776;9.162;2022-12-18T03:37:41;44.33;;;31.13;;
291;SDS011;23311;48.776;9.162;2022-12-18T03:40:09;44.77;;;30.60;;
291;SDS011;23311;48.776;9.162;2022-12-18T03:42:42;47.40;;;31.13;;
291;SDS011;23311;48.776;9.162;2022-12-18T03:45:19;44.27;;;31.47;;
291;SDS011;23311;48.776;9.162;2022-12-18T03:47:53;38.50;;;27.80;;
291;SDS011;23311;48.776;9.162;2022-12-18T03:50:29;43.40;;;28.97;;
291;SDS011;23311;48.776;9.162;2022-12-18T03:53:08;43.20;;;30.27;;
291;SDS011;23311;48.776;9.162;2022-12-18T03:55:44;40.17;;;29.73;;
291;SDS011;23311;48.776;9.162;2022-12-18T03:58:16;40.70;;;29.50;;
291;SDS011;23311;48.776;9.162;2022-12-18T04:00:48;40.23;;;27.73;;
291;SDS011;23311;48.776;9.162;2022-12-18T04:03:19;42.33;;;28.73;;
291;SDS011;23311;48.776;9.162;2022-12-18T04:05:52;39.40;;;28.40;;
291;SDS011;23311;48.776;9.162;2022-12-18T04:08:22;38.33;;;27.70;;
291;SDS011;23311;48.776;9.162;2022-12-18T04:10:52;36.30;;;28.87;;
291;SDS011;23311;48.776;9.162;2022-12-18T04:13:24;44.20;;;30.20;;
291;SDS011;23311;48.776;9.162;2022-12-18T04:15:56;42.87;;;28.70;;
291;SDS011;23311;48.776;9.162;2022-12-18T04:18:24;41.80;;;29.87;;
291;SDS011;23311;48.776;9.162;2022-12-18T04:20:52;41.60;;;29.37;;
291;SDS011;23311;48.776;9.162;2022-12-18T04:23:21;43.50;;;31.00;;
291;SDS011;23311;48.776;9.162;2022-12-18T04:25:49;50.00;;;33.93;;
291;SDS011;23311;48.776;9.162;2022-12-18T04:28:17;40.13;;;31.07;;
291;SDS011;23311;48.776;9.162;2022-12-18T04:30:47;41.03;;;29.30;;
291;SDS011;23311;48.776;9.162;2022-12-18T04:33:16;38.90;;;29.17;;
291;SDS011;23311;48.776;9.162;2022-12-18T04:35:45;41.37;;;29.10;;
291;SDS011;23311;48.776;9.162;2022-12-18T04:38:13;41.50;;;28.97;;
291;SDS011;23311;48.776;9.162;2022-12-18T04:40:41;37.60;;;28.53;;
291;SDS011;23311;48.776;9.162;2022-12-18T04:43:09;37.17;;;28.03;;
291;SDS011;23311;48.776;9.162;2022-12-18T04:45:38;43.97;;;30.40;;
291;SDS011;23311;48.776;9.162;2022-12-18T04:48:07;41.23;;;27.43;;
291;SDS011;23311;48.776;9.162;2022-12-18T04:50:36;34.00;;;27.73;;
291;SDS011;23311;48.776;9.162;2022-12-18T04:53:04;43.70;;;31.90;;
291;SDS011;23311;48.776;9.162;2022-12-18T04:55:32;36.73;;;28.17;;
291;SDS011;23311;48.776;9.162;2022-12-18T04:58:00;42.10;;;31.33;;
291;SDS011;23311;48.776;9.162;2022-12-18T05:00:28;43.67;;;31.03;;
291;SDS011;23311;48.776;9.162;2022-12-18T05:02:56;39.93;;;30.27;;
291;SDS011;23311;48.776;9.162;2022-12-18T05:05:26;43.60;;;30.03;;
291;SDS011;23311;48.776;9.162;2022-12-18T05:07:54;43.80;;;28.63;;
291;SDS011;23311;48.776;9.162;2022-12-18T05:10:22;42.10;;;29.90;;
291;SDS011;23311;48.776;9.162;2022-12-18T05:12:50;46.93;;;31.30;;
291;SDS011;23311;48.776;9.162;2022-12-18T05:15:28;40.10;;;30.50;;
291;SDS011;23311;48.776;9.162;2022-12-18T05:17:57;46.70;;;31.37;;
291;SDS011;23311;48.776;9.162;2022-12-18T05:20:27;39.63;;;28.93;;
291;SDS011;23311;48.776;9.162;2022-12-18T05:22:56;39.37;;;28.80;;
291;SDS011;23311;48.776;9.162;2022-12-18T05:25:24;42.10;;;27.73;;
291;SDS011;23311;48.776;9.162;2022-12-18T05:27:52;39.30;;;27.40;;
291;SDS011;23311;48.776;9.162;2022-12-18T05:30:20;41.90;;;28.90;;
291;SDS011;23311;48.776;9.162;2022-12-18T05:32:48;42.00;;;29.70;;
291;SDS011;23311;48.776;9.162;2022-12-18T05:35:17;43.90;;;28.40;;
291;SDS011;23311;48.776;9.162;2022-12-18T05:37:46;39.43;;;26.93;;
291;SDS011;23311;48.776;9.162;2022-12-18T05:40:14;46.53;;;28.83;;
291;SDS011;23311;48.776;9.162;2022-12-18T05:42:43;39.53;;;28.80;;
291;SDS011;23311;48.776;9.162;2022-12-18T05:45:11;42.50;;;29.13;;
291;SDS011;23311;48.776;9.162;2022-12-18T05:47:39;41.40;;;28.67;;
291;SDS011;23311;48.776;9.162;2022-12-18T05:50:07;36.20;;;26.17;;
291;SDS011;23311;48.776;9.162;2022-12-18T05:52:35;39.30;;;28.40;;
291;SDS011;23311;48.776;9.162;2022-12-18T05:55:05;41.33;;;29.27;;
291;SDS011;23311;48.776;9.162;2022-12-18T05:57:33;43.67;;;30.80;;
291;SDS011;23311;48.776;9.162;2022-12-18T06:00:02;37.57;;;27.90;;
291;SDS011;23311;48.776;9.162;2022-12-18T06:02:31;41.93;;;28.07;;
291;SDS011;23311;48.776;9.162;2022-12-18T06:04:59;38.10;;;28.10;;
291;SDS011;23311;48.776;9.162;2022-12-18T06:07:27;41.33;;;28.50;;
291;SDS011;23311;48.776;9.162;2022-12-18T06:09:55;40.70;;;27.20;;
291;SDS011;23311;48.776;9.162;2022-12-18T06:12:24;38.17;;;26.87;;
291;SDS011;23311;48.776;9.162;2022-12-18T06:14:52;36.77;;;27.17;;
291;SDS011;23311;48.776;9.162;2022-12-18T06:17:20;40.67;;;27.70;;
291;SDS011;23311;48.776;9.162;2022-12-18T06:19:49;38.87;;;26.70;;
291;SDS011;23311;48.776;9.162;2022-12-18T06:22:17;38.03;;;26.53;;
291;SDS011;23311;48.776;9.162;2022-12-18T06:24:46;37.53;;;26.20;;
291;SDS011;23311;48.776;9.162;2022-12-18T06:27:14;39.73;;;27.00;;
291;SDS011;23311;48.776;9.162;2022-12-18T06:29:43;40.90;;;28.67;;
291;SDS011;23311;48.776;9.162;2022-12-18T06:32:11;36.80;;;25.60;;
291;SDS011;23311;48.776;9.162;2022-12-18T06:34:39;38.80;;;27.43;;
291;SDS011;23311;48.776;9.162;2022-12-18T06:37:08;38.67;;;29.30;;
291;SDS011;23311;48.776;9.162;2022-12-18T06:39:36;36.47;;;26.90;;
291;SDS011;23311;48.776;9.162;2022-12-18T06:42:04;35.10;;;25.70;;
291;SDS011;23311;48.776;9.162;2022-12-18T06:44:32;42.63;;;28.77;;
291;SDS011;23311;48.776;9.162;2022-12-18T06:47:02;40.97;;;28.40;;
291;SDS011;23311;48.776;9.162;2022-12-18T06:49:30;38.43;;;29.13;;
291;SDS011;23311;48.776;9.162;2022-12-18T06:51:58;39.60;;;28.10;;
291;SDS011;23311;48.776;9.162;2022-12-18T06:54:26;37.70;;;27.17;;
291;SDS011;23311;48.776;9.162;2022-12-18T06:56:54;36.67;;;27.77;;
291;SDS011;23311;48.776;9.162;2022-12-18T06:59:22;40.27;;;29.20;;
291;SDS011;23311;48.776;9.162;2022-12-18T07:01:51;44.27;;;30.23;;
291;SDS011;23311;48.776;9.162;2022-12-18T07:04:21;39.53;;;26.97;;
291;SDS011;23311;48.776;9.162;2022-12-18T07:06:49;40.87;;;30.03;;
291;SDS011;23311;48.776;9.162;2022-12-18T07:09:17;36.97;;;27.77;;
291;SDS011;23311;48.776;9.162;2022-12-18T07:11:46;39.60;;;28.23;;
291;SDS011;23311;48.776;9.162;2022-12-18T07:14:14;37.63;;;27.67;;
291;SDS011;23311;48.776;9.162;2022-12-18T07:16:42;36.60;;;27.63;;
291;SDS011;23311;48.776;9.162;2022-12-18T07:19:10;34.60;;;26.90;;
291;SDS011;23311;48.776;9.162;2022-12-18T07:21:39;38.40;;;25.27;;
291;SDS011;23311;48.776;9.162;2022-12-18T07:24:07;36.07;;;25.70;;
291;SDS011;23311;48.776;9.162;2022-12-18T07:26:36;34.27;;;24.93;;
291;SDS011;23311;48.776;9.162;2022-12-18T07:29:04;39.97;;;27.67;;
291;SDS011;23311;48.776;9.162;2022-12-18T07:31:32;41.90;;;28.07;;
291;SDS011;23311;48.776;9.162;2022-12-18T07:34:00;36.50;;;25.43;;
291;SDS011;23311;48.776;9.162;2022-12-18T07:36:28;41.13;;;25.80;;
291;SDS011;23311;48.776;9.162;2022-12-18T07:38:57;43.33;;;26.83;;
291;SDS011;23311;48.776;9.162;2022-12-18T07:41:26;42.40;;;28.03;;
291;SDS011;23311;48.776;9.162;2022-12-18T07:43:54;34.60;;;24.83;;
291;SDS011;23311;48.776;9.162;2022-12-18T07:46:22;40.03;;;25.80;;
291;SDS011;23311;48.776;9.162;2022-12-18T07:48:50;37.47;;;25.30;;
291;SDS011;23311;48.776;9.162;2022-12-18T07:51:19;39.70;;;27.07;;
291;SDS011;23311;48.776;9.162;2022-12-18T07:53:47;36.30;;;25.10;;
291;SDS011;23311;48.776;9.162;2022-12-18T07:56:19;40.10;;;26.93;;
291;SDS011;23311;48.776;9.162;2022-12-18T07:58:57;31.77;;;23.43;;
291;SDS011;23311;48.776;9.162;2022-12-18T08:01:26;36.57;;;26.60;;
291;SDS011;23311;48.776;9.162;2022-12-18T08:03:55;36.10;;;24.33;;
291;SDS011;23311;48.776;9.162;2022-12-18T08:06:23;35.83;;;27.63;;
291;SDS011;23311;48.776;9.162;2022-12-18T08:08:51;37.83;;;25.67;;
291;SDS011;23311;48.776;9.162;2022-12-18T08:11:21;38.00;;;26.57;;
291;SDS011;23311;48.776;9.162;2022-12-18T08:13:51;36.20;;;24.90;;
291;SDS011;23311;48.776;9.162;2022-12-18T08:16:19;39.50;;;26.50;;
291;SDS011;23311;48.776;9.162;2022-12-18T08:18:48;37.90;;;24.63;;
291;SDS011;23311;48.776;9.162;2022-12-18T08:21:19;37.50;;;25.50;;
291;SDS011;23311;48.776;9.162;2022-12-18T08:23:49;35.17;;;24.50;;
291;SDS011;23311;48.776;9.162;2022-12-18T08:26:18;35.57;;;25.60;;
291;SDS011;23311;48.776;9.162;2022-12-18T08:28:48;35.17;;;24.40;;
291;SDS011;23311;48.776;9.162;2022-12-18T08:31:17;33.77;;;24.40;;
291;SDS011;23311;48.776;9.162;2022-12-18T08:33:47;37.50;;;26.00;;
291;SDS011;23311;48.776;9.162;2022-12-18T08:36:16;34.30;;;23.70;;
291;SDS011;23311;48.776;9.162;2022-12-18T08:38:46;34.57;;;22.77;;
291;SDS011;23311;48.776;9.162;2022-12-18T08:41:14;35.17;;;24.40;;
291;SDS011;23311;48.776;9.162;2022-12-18T08:43:43;39.73;;;26.80;;
291;SDS011;23311;48.776;9.162;2022-12-18T08:46:32;35.20;;;23.30;;
291;SDS011;23311;48.776;9.162;2022-12-18T08:49:03;30.90;;;23.53;;
291;SDS011;23311;48.776;9.162;2022-12-18T08:51:32;36.33;;;25.00;;
291;SDS011;23311;48.776;9.162;2022-12-18T08:54:00;38.23;;;26.70;;
291;SDS011;23311;48.776;9.162;2022-12-18T08:56:31;37.33;;;24.33;;
291;SDS011;23311;48.776;9.162;2022-12-18T08:59:00;34.30;;;24.80;;
291;SDS011;23311;48.776;9.162;2022-12-18T09:01:28;33.93;;;23.23;;
291;SDS011;23311;48.776;9.162;2022-12-18T09:03:58;36.37;;;23.40;;
291;SDS011;23311;48.776;9.162;2022-12-18T09:06:26;27.33;;;21.00;;
291;SDS011;23311;48.776;9.162;2022-12-18T09:08:54;36.43;;;24.57;;
291;SDS011;23311;48.776;9.162;2022-12-18T09:11:26;34.17;;;23.93;;
291;SDS011;23311;48.776;9.162;2022-12-18T09:13:55;33.27;;;24.20;;
291;SDS011;23311;48.776;9.162;2022-12-18T09:16:24;33.27;;;22.80;;
291;SDS011;23311;48.776;9.162;2022-12-18T09:18:59;32.50;;;23.73;;
291;SDS011;23311;48.776;9.162;2022-12-18T09:21:28;36.60;;;24.60;;
291;SDS011;23311;48.776;9.162;2022-12-18T09:24:01;34.80;;;24.03;;
291;SDS011;23311;48.776;9.162;2022-12-18T09:26:30;33.73;;;23.13;;
291;SDS011;23311;48.776;9.162;2022-12-18T09:28:58;35.40;;;24.67;;
291;SDS011;23311;48.776;9.162;2022-12-18T09:31:26;36.13;;;25.50;;
291;SDS011;23311;48.776;9.162;2022-12-18T09:33:54;35.00;;;24.13;;
291;SDS011;23311;48.776;9.162;2022-12-18T09:36:24;43.17;;;27.20;;
291;SDS011;23311;48.776;9.162;2022-12-18T09:38:52;38.37;;;26.30;;
291;SDS011;23311;48.776;9.162;2022-12-18T09:41:29;38.60;;;25.93;;
291;SDS011;23311;48.776;9.162;2022-12-18T09:44:05;41.37;;;26.83;;
291;SDS011;23311;48.776;9.162;2022-12-18T09:46:43;36.50;;;24.80;;
291;SDS011;23311;48.776;9.162;2022-12-18T09:49:14;38.80;;;25.17;;
291;SDS011;23311;48.776;9.162;2022-12-18T09:51:49;41.00;;;25.60;;
291;SDS011;23311;48.776;9.162;2022-12-18T09:54:21;33.43;;;24.33;;
291;SDS011;23311;48.776;9.162;2022-12-18T09:56:52;40.47;;;26.60;;
291;SDS011;23311;48.776;9.162;2022-12-18T09:59:22;34.10;;;23.47;;
291;SDS011;23311;48.776;9.162;2022-12-18T10:01:53;40.07;;;26.70;;
291;SDS011;23311;48.776;9.162;2022-12-18T10:04:22;37.97;;;24.73;;
291;SDS011;23311;48.776;9.162;2022-12-18T10:06:54;38.10;;;24.00;;
291;SDS011;23311;48.776;9.162;2022-12-18T10:09:36;34.40;;;23.67;;
291;SDS011;23311;48.776;9.162;2022-12-18T10:12:09;30.23;;;20.77;;
291;SDS011;23311;48.776;9.162;2022-12-18T10:14:45;35.10;;;21.40;;
291;SDS011;23311;48.776;9.162;2022-12-18T10:17:21;36.47;;;24.27;;
291;SDS011;23311;48.776;9.162;2022-12-18T10:19:58;35.60;;;25.03;;
291;SDS011;23311;48.776;9.162;2022-12-18T10:22:38;37.23;;;23.40;;
291;SDS011;23311;48.776;9.162;2022-12-18T10:25:15;40.13;;;24.17;;
291;SDS011;23311;48.776;9.162;2022-12-18T10:27:50;29.70;;;19.93;;
291;SDS011;23311;48.776;9.162;2022-12-18T10:30:21;34.53;;;23.20;;
291;SDS011;23311;48.776;9.162;2022-12-18T10:32:51;34.10;;;22.60;;
291;SDS011;23311;48.776;9.162;2022-12-18T10:35:20;38.67;;;24.17;;
291;SDS011;23311;48.776;9.162;2022-12-18T10:38:01;35.77;;;22.80;;
291;SDS011;23311;48.776;9.162;2022-12-18T10:40:32;36.33;;;21.40;;
291;SDS011;23311;48.776;9.162;2022-12-18T10:43:14;33.43;;;19.90;;
291;SDS011;23311;48.776;9.162;2022-12-18T10:45:57;37.67;;;20.90;;
291;SDS011;23311;48.776;9.162;2022-12-18T10:48:49;37.60;;;22.50;;
291;SDS011;23311;48.776;9.162;2022-12-18T10:51:20;30.20;;;20.73;;
291;SDS011;23311;48.776;9.162;2022-12-18T10:53:54;31.50;;;20.50;;
291;SDS011;23311;48.776;9.162;2022-12-18T10:56:24;34.00;;;21.17;;
291;SDS011;23311;48.776;9.162;2022-12-18T10:58:56;38.50;;;22.30;;
291;SDS011;23311;48.776;9.162;2022-12-18T11:01:31;28.70;;;20.53;;
291;SDS011;23311;48.776;9.162;2022-12-18T11:04:16;33.70;;;21.10;;
291;SDS011;23311;48.776;9.162;2022-12-18T11:09:39;33.90;;;21.40;;
291;SDS011;23311;48.776;9.162;2022-12-18T11:12:15;35.33;;;21.43;;
291;SDS011;23311;48.776;9.162;2022-12-18T11:14:46;35.67;;;22.70;;
291;SDS011;23311;48.776;9.162;2022-12-18T11:17:17;31.53;;;20.53;;
291;SDS011;23311;48.776;9.162;2022-12-18T11:19:52;31.10;;;20.37;;
291;SDS011;23311;48.776;9.162;2022-12-18T11:22:23;33.30;;;20.47;;
291;SDS011;23311;48.776;9.162;2022-12-18T11:24:56;37.40;;;22.47;;
291;SDS011;23311;48.776;9.162;2022-12-18T11:27:49;31.00;;;20.67;;
291;SDS011;23311;48.776;9.162;2022-12-18T11:30:23;29.50;;;19.23;;
291;SDS011;23311;48.776;9.162;2022-12-18T11:32:58;29.63;;;20.40;;
291;SDS011;23311;48.776;9.162;2022-12-18T11:35:35;31.17;;;20.23;;
291;SDS011;23311;48.776;9.162;2022-12-18T11:38:10;28.27;;;19.50;;
291;SDS011;23311;48.776;9.162;2022-12-18T11:40:47;30.30;;;20.67;;
291;SDS011;23311;48.776;9.162;2022-12-18T11:43:21;29.80;;;19.23;;
291;SDS011;23311;48.776;9.162;2022-12-18T11:45:55;29.57;;;19.73;;
291;SDS011;23311;48.776;9.162;2022-12-18T11:48:27;34.43;;;19.67;;
291;SDS011;23311;48.776;9.162;2022-12-18T11:51:00;29.80;;;19.83;;
291;SDS011;23311;48.776;9.162;2022-12-18T11:53:32;31.90;;;19.77;;
291;SDS011;23311;48.776;9.162;2022-12-18T11:56:11;40.53;;;19.93;;
291;SDS011;23311;48.776;9.162;2022-12-18T11:58:55;30.57;;;18.80;;
291;SDS011;23311;48.776;9.162;2022-12-18T12:01:38;34.87;;;21.80;;
291;SDS011;23311;48.776;9.162;2022-12-18T12:04:20;28.90;;;18.33;;
291;SDS011;23311;48.776;9.162;2022-12-18T12:07:12;36.00;;;21.80;;
291;SDS011;23311;48.776;9.162;2022-12-18T12:09:49;31.30;;;20.13;;
291;SDS011;23311;48.776;9.162;2022-12-18T12:12:32;38.23;;;19.10;;
291;SDS011;23311;48.776;9.162;2022-12-18T12:15:17;27.20;;;18.20;;
291;SDS011;23311;48.776;9.162;2022-12-18T12:17:53;33.87;;;18.83;;
291;SDS011;23311;48.776;9.162;2022-12-18T12:20:32;28.73;;;17.83;;
291;SDS011;23311;48.776;9.162;2022-12-18T12:23:12;32.60;;;20.13;;
291;SDS011;23311;48.776;9.162;2022-12-18T12:25:54;28.60;;;17.83;;
291;SDS011;23311;48.776;9.162;2022-12-18T12:28:31;29.73;;;17.63;;
291;SDS011;23311;48.776;9.162;2022-12-18T12:31:15;32.87;;;19.13;;
291;SDS011;23311;48.776;9.162;2022-12-18T12:33:52;31.17;;;18.30;;
291;SDS011;23311;48.776;9.162;2022-12-18T12:36:33;28.40;;;18.37;;
291;SDS011;23311;48.776;9.162;2022-12-18T12:39:08;29.97;;;17.57;;
291;SDS011;23311;48.776;9.162;2022-12-18T12:41:41;30.17;;;17.93;;
291;SDS011;23311;48.776;9.162;2022-12-18T12:44:32;30.10;;;18.23;;
291;SDS011;23311;48.776;9.162;2022-12-18T12:47:06;32.57;;;18.37;;
291;SDS011;23311;48.776;9.162;2022-12-18T12:49:42;27.47;;;17.07;;
291;SDS011;23311;48.776;9.162;2022-12-18T12:52:17;27.93;;;18.40;;
291;SDS011;23311;48.776;9.162;2022-12-18T12:54:55;29.17;;;19.37;;
291;SDS011;23311;48.776;9.162;2022-12-18T12:57:26;29.17;;;18.40;;
291;SDS011;23311;48.776;9.162;2022-12-18T13:00:02;27.90;;;18.03;;
291;SDS011;23311;48.776;9.162;2022-12-18T13:02:35;29.00;;;17.77;;
291;SDS011;23311;48.776;9.162;2022-12-18T13:05:14;28.73;;;17.23;;
291;SDS011;23311;48.776;9.162;2022-12-18T13:07:49;27.67;;;17.27;;
291;SDS011;23311;48.776;9.162;2022-12-18T13:13:10;32.70;;;18.53;;
291;SDS011;23311;48.776;9.162;2022-12-18T13:15:48;34.40;;;18.70;;
291;SDS011;23311;48.776;9.162;2022-12-18T13:18:31;33.80;;;19.40;;
291;SDS011;23311;48.776;9.162;2022-12-18T13:21:02;30.40;;;19.60;;
291;SDS011;23311;48.776;9.162;2022-12-18T13:23:38;30.90;;;17.93;;
291;SDS011;23311;48.776;9.162;2022-12-18T13:29:01;25.10;;;17.20;;
291;SDS011;23311;48.776;9.162;2022-12-18T13:34:36;31.23;;;17.87;;
291;SDS011;23311;48.776;9.162;2022-12-18T13:43:27;27.90;;;17.83;;
291;SDS011;23311;48.776;9.162;2022-12-18T13:45:59;26.57;;;16.70;;
291;SDS011;23311;48.776;9.162;2022-12-18T13:48:47;28.77;;;19.30;;
291;SDS011;23311;48.776;9.162;2022-12-18T13:51:20;30.40;;;20.13;;
291;SDS011;23311;48.776;9.162;2022-12-18T13:53:49;33.47;;;18.60;;
291;SDS011;23311;48.776;9.162;2022-12-18T13:56:21;28.60;;;17.97;;
291;SDS011;23311;48.776;9.162;2022-12-18T14:01:42;31.47;;;18.87;;
291;SDS011;23311;48.776;9.162;2022-12-18T14:04:12;36.63;;;18.37;;
291;SDS011;23311;48.776;9.162;2022-12-18T14:06:49;35.17;;;20.63;;
291;SDS011;23311;48.776;9.162;2022-12-18T14:09:21;31.33;;;18.70;;
291;SDS011;23311;48.776;9.162;2022-12-18T14:11:53;30.63;;;20.40;;
291;SDS011;23311;48.776;9.162;2022-12-18T14:14:44;31.20;;;20.80;;
291;SDS011;23311;48.776;9.162;2022-12-18T14:17:16;34.37;;;22.73;;
291;SDS011;23311;48.776;9.162;2022-12-18T14:19:47;34.70;;;18.77;;
291;SDS011;23311;48.776;9.162;2022-12-18T14:22:19;31.20;;;19.90;;
291;SDS011;23311;48.776;9.162;2022-12-18T14:25:04;35.63;;;19.70;;
291;SDS011;23311;48.776;9.162;2022-12-18T14:27:42;35.03;;;20.33;;
291;SDS011;23311;48.776;9.162;2022-12-18T14:30:25;33.27;;;19.60;;
291;SDS011;23311;48.776;9.162;2022-12-18T14:33:01;37.77;;;22.80;;
291;SDS011;23311;48.776;9.162;2022-12-18T14:35:31;35.43;;;21.00;;
291;SDS011;23311;48.776;9.162;2022-12-18T14:38:11;33.40;;;20.73;;
291;SDS011;23311;48.776;9.162;2022-12-18T14:40:51;35.87;;;20.50;;
291;SDS011;23311;48.776;9.162;2022-12-18T14:43:21;34.77;;;19.47;;
291;SDS011;23311;48.776;9.162;2022-12-18T14:45:49;34.60;;;20.77;;
291;SDS011;23311;48.776;9.162;2022-12-18T14:48:19;34.83;;;22.60;;
291;SDS011;23311;48.776;9.162;2022-12-18T14:50:57;34.97;;;21.30;;
291;SDS011;23311;48.776;9.162;2022-12-18T14:53:34;41.43;;;23.20;;
291;SDS011;23311;48.776;9.162;2022-12-18T14:56:12;33.47;;;22.00;;
291;SDS011;23311;48.776;9.162;2022-12-18T14:58:46;39.90;;;23.30;;
291;SDS011;23311;48.776;9.162;2022-12-18T15:01:22;36.87;;;22.43;;
291;SDS011;23311;48.776;9.162;2022-12-18T15:03:53;37.87;;;23.90;;
291;SDS011;23311;48.776;9.162;2022-12-18T15:06:24;36.33;;;22.13;;
291;SDS011;23311;48.776;9.162;2022-12-18T15:09:03;42.90;;;25.50;;
291;SDS011;23311;48.776;9.162;2022-12-18T15:11:43;37.30;;;23.30;;
291;SDS011;23311;48.776;9.162;2022-12-18T15:14:23;43.50;;;24.80;;
291;SDS011;23311;48.776;9.162;2022-12-18T15:16:58;35.33;;;21.57;;
291;SDS011;23311;48.776;9.162;2022-12-18T15:19:35;38.63;;;24.07;;
291;SDS011;23311;48.776;9.162;2022-12-18T15:22:14;39.80;;;24.80;;
291;SDS011;23311;48.776;9.162;2022-12-18T15:24:49;39.90;;;24.53;;
291;SDS011;23311;48.776;9.162;2022-12-18T15:27:24;40.10;;;24.27;;
291;SDS011;23311;48.776;9.162;2022-12-18T15:32:47;41.33;;;24.03;;
291;SDS011;23311;48.776;9.162;2022-12-18T15:35:17;38.17;;;24.03;;
291;SDS011;23311;48.776;9.162;2022-12-18T15:37:46;36.33;;;23.37;;
291;SDS011;23311;48.776;9.162;2022-12-18T15:40:17;40.10;;;24.53;;